Time;durP1;ratioP1;P1;durP2;ratioP2;P2;SDS_P1;SDS_P2;PMS_P1;PMS_P2;Temp;Humidity;BMP_temperature;BMP_pressure;BME280_temperature;BME280_humidity;BME280_pressure;Samples;Min_cycle;Max_cycle;Signal;HPM_P1;HPM_P2
2021/07/05 00:00:21;;;;;;;7.25;5.95;;;;;;;;;;5087832;28;20047;-55
2021/07/05 00:02:46;;;;;;;7.70;5.90;;;;;;;;;;5078834;28;20086;-54
2021/07/05 00:05:12;;;;;;;7.03;6.30;;;;;;;;;;5076144;28;20021;-56
2021/07/05 00:07:38;;;;;;;6.00;5.50;;;;;;;;;;5083947;28;20059;-56
2021/07/05 00:10:04;;;;;;;8.38;5.70;;;;;;;;;;5094218;28;20020;-54
2021/07/05 00:12:29;;;;;;;7.18;6.35;;;;;;;;;;5087599;28;20386;-54
2021/07/05 00:14:54;;;;;;;9.48;6.78;;;;;;;;;;5090150;28;20021;-55
2021/07/05 00:17:20;;;;;;;6.60;5.93;;;;;;;;;;5077945;28;20372;-54
2021/07/05 00:19:45;;;;;;;6.68;5.97;;;;;;;;;;5083514;28;20028;-55
2021/07/05 00:22:10;;;;;;;10.00;6.60;;;;;;;;;;5074078;28;20651;-56
2021/07/05 00:24:35;;;;;;;7.20;6.55;;;;;;;;;;5088412;28;20484;-55
2021/07/05 00:27:01;;;;;;;8.52;6.05;;;;;;;;;;5079308;28;20017;-54
2021/07/05 00:29:26;;;;;;;6.38;5.68;;;;;;;;;;5075886;28;20021;-55
2021/07/05 00:31:51;;;;;;;10.45;6.10;;;;;;;;;;5081544;28;20519;-56
2021/07/05 00:34:17;;;;;;;7.78;5.90;;;;;;;;;;5095133;28;20020;-54
2021/07/05 00:36:42;;;;;;;6.47;5.80;;;;;;;;;;5093119;28;20020;-54
2021/07/05 00:39:07;;;;;;;7.85;5.97;;;;;;;;;;5079101;28;20087;-54
2021/07/05 00:41:33;;;;;;;9.25;6.07;;;;;;;;;;5077507;28;20027;-56
2021/07/05 00:43:58;;;;;;;7.38;5.20;;;;;;;;;;5094336;28;20039;-54
2021/07/05 00:46:24;;;;;;;8.48;5.78;;;;;;;;;;5080852;28;20099;-53
2021/07/05 00:48:49;;;;;;;6.07;5.07;;;;;;;;;;5086828;28;20102;-55
2021/07/05 00:51:16;;;;;;;6.50;5.82;;;;;;;;;;5089861;28;20019;-54
2021/07/05 00:53:42;;;;;;;7.60;5.15;;;;;;;;;;5084633;28;20021;-55
2021/07/05 00:56:07;;;;;;;7.05;5.65;;;;;;;;;;5081569;28;20024;-54
2021/07/05 00:58:32;;;;;;;6.68;5.35;;;;;;;;;;5090906;28;20058;-55
2021/07/05 01:00:57;;;;;;;7.78;5.50;;;;;;;;;;5082457;28;20353;-53
2021/07/05 01:03:23;;;;;;;8.40;5.88;;;;;;;;;;5081699;28;20043;-52
2021/07/05 01:05:48;;;;;;;7.15;5.18;;;;;;;;;;5090365;28;20106;-54
2021/07/05 01:08:13;;;;;;;6.43;5.15;;;;;;;;;;5088979;28;20078;-54
2021/07/05 01:10:38;;;;;;;6.15;5.60;;;;;;;;;;5077696;28;20025;-55
2021/07/05 01:13:03;;;;;;;8.57;5.18;;;;;;;;;;5076184;28;20033;-55
2021/07/05 01:15:30;;;;;;;8.63;5.57;;;;;;;;;;5093563;28;20027;-56
2021/07/05 01:17:56;;;;;;;5.15;4.65;;;;;;;;;;5088005;28;20036;-55
2021/07/05 01:20:24;;;;;;;6.40;5.40;;;;;;;;;;5080525;28;20357;-54
2021/07/05 01:22:49;;;;;;;5.47;4.88;;;;;;;;;;5087902;28;20028;-54
2021/07/05 01:25:16;;;;;;;4.55;3.72;;;;;;;;;;5082089;28;20081;-55
2021/07/05 01:27:42;;;;;;;5.20;4.70;;;;;;;;;;5089265;28;20032;-55
2021/07/05 01:30:08;;;;;;;4.45;4.03;;;;;;;;;;5093021;28;20087;-53
2021/07/05 01:32:33;;;;;;;4.68;4.20;;;;;;;;;;5079094;28;20017;-55
2021/07/05 01:34:58;;;;;;;5.05;4.57;;;;;;;;;;5073903;28;20054;-52
2021/07/05 01:37:23;;;;;;;4.25;3.80;;;;;;;;;;5073362;28;20032;-53
2021/07/05 01:39:49;;;;;;;3.75;3.45;;;;;;;;;;5087514;28;20024;-53
2021/07/05 01:42:14;;;;;;;3.83;3.53;;;;;;;;;;5076562;28;20028;-54
2021/07/05 01:44:39;;;;;;;4.22;2.83;;;;;;;;;;5074235;28;20082;-52
2021/07/05 01:47:04;;;;;;;4.32;3.08;;;;;;;;;;5081523;28;20020;-54
2021/07/05 01:49:30;;;;;;;3.00;2.70;;;;;;;;;;5086801;28;20020;-54
2021/07/05 01:51:55;;;;;;;3.95;2.72;;;;;;;;;;5079116;28;20025;-56
2021/07/05 01:54:20;;;;;;;2.90;2.70;;;;;;;;;;5084807;28;20028;-55
2021/07/05 01:56:46;;;;;;;2.97;2.70;;;;;;;;;;5093218;28;20019;-55
2021/07/05 01:59:11;;;;;;;2.55;2.35;;;;;;;;;;5093012;28;20059;-55
2021/07/05 02:01:37;;;;;;;2.55;2.35;;;;;;;;;;5085518;28;20023;-54
2021/07/05 02:04:03;;;;;;;2.13;2.03;;;;;;;;;;5092386;28;20538;-53
2021/07/05 02:06:28;;;;;;;2.40;2.20;;;;;;;;;;5073210;28;20483;-54
2021/07/05 02:08:53;;;;;;;2.63;2.35;;;;;;;;;;5090861;28;20059;-51
2021/07/05 02:11:19;;;;;;;3.15;2.40;;;;;;;;;;5081936;28;20063;-56
2021/07/05 02:13:44;;;;;;;2.47;1.90;;;;;;;;;;5092875;28;20020;-55
2021/07/05 02:16:09;;;;;;;2.60;2.40;;;;;;;;;;5093490;28;20494;-56
2021/07/05 02:18:34;;;;;;;2.10;2.00;;;;;;;;;;5077915;28;20024;-53
2021/07/05 02:21:01;;;;;;;2.35;2.17;;;;;;;;;;5074457;28;20165;-55
2021/07/05 02:23:26;;;;;;;2.53;2.28;;;;;;;;;;5081205;28;20022;-55
2021/07/05 02:25:52;;;;;;;2.22;2.03;;;;;;;;;;5092839;28;20016;-52
2021/07/05 02:28:22;;;;;;;3.58;2.22;;;;;;;;;;5080144;28;20029;-53
2021/07/05 02:30:48;;;;;;;3.53;2.38;;;;;;;;;;5072141;28;20044;-54
2021/07/05 02:33:14;;;;;;;2.47;2.25;;;;;;;;;;5085201;28;20097;-54
2021/07/05 02:35:39;;;;;;;3.42;2.30;;;;;;;;;;5092662;28;20012;-56
2021/07/05 02:38:08;;;;;;;3.03;2.47;;;;;;;;;;5090229;28;20483;-54
2021/07/05 02:40:34;;;;;;;2.53;2.40;;;;;;;;;;5088039;28;20457;-52
2021/07/05 02:43:00;;;;;;;3.08;2.55;;;;;;;;;;5075220;28;20107;-54
2021/07/05 02:45:26;;;;;;;3.00;2.70;;;;;;;;;;5072665;28;20029;-55
2021/07/05 02:47:56;;;;;;;2.65;2.42;;;;;;;;;;5079002;28;20024;-56
2021/07/05 02:50:21;;;;;;;3.65;2.28;;;;;;;;;;5081131;28;20052;-57
2021/07/05 02:52:47;;;;;;;2.13;1.92;;;;;;;;;;5084105;28;20400;-55
2021/07/05 02:55:12;;;;;;;5.45;2.70;;;;;;;;;;5077882;28;20012;-57
2021/07/05 02:57:38;;;;;;;2.50;2.28;;;;;;;;;;5078446;28;20032;-55
2021/07/05 03:00:20;;;;;;;4.50;3.10;;;;;;;;;;5092333;28;20058;-53
2021/07/05 03:02:46;;;;;;;5.70;3.03;;;;;;;;;;5075810;28;20041;-55
2021/07/05 03:05:12;;;;;;;3.67;2.92;;;;;;;;;;5072157;28;20442;-55
2021/07/05 03:07:37;;;;;;;3.15;2.95;;;;;;;;;;5078126;28;20015;-56
2021/07/05 03:10:05;;;;;;;2.97;2.60;;;;;;;;;;5092063;28;20020;-56
2021/07/05 03:12:30;;;;;;;4.03;2.80;;;;;;;;;;5080884;28;20392;-55
2021/07/05 03:14:55;;;;;;;2.58;2.38;;;;;;;;;;5084520;28;20017;-55
2021/07/05 03:17:21;;;;;;;3.55;2.97;;;;;;;;;;5092436;28;20023;-55
2021/07/05 03:19:46;;;;;;;4.38;3.58;;;;;;;;;;5075322;28;20471;-54
2021/07/05 03:22:13;;;;;;;3.00;2.80;;;;;;;;;;5075476;28;20047;-57
2021/07/05 03:24:38;;;;;;;2.72;2.53;;;;;;;;;;5072112;28;20380;-56
2021/07/05 03:27:04;;;;;;;3.33;2.45;;;;;;;;;;5072391;28;20027;-53
2021/07/05 03:29:30;;;;;;;3.00;2.80;;;;;;;;;;5092446;28;20024;-52
2021/07/05 03:31:55;;;;;;;2.75;2.35;;;;;;;;;;5087244;28;20077;-54
2021/07/05 03:34:20;;;;;;;2.50;2.30;;;;;;;;;;5076160;28;20032;-55
2021/07/05 03:36:45;;;;;;;2.78;2.53;;;;;;;;;;5076039;28;20019;-51
2021/07/05 03:39:11;;;;;;;3.80;2.85;;;;;;;;;;5076066;28;20414;-53
2021/07/05 03:41:36;;;;;;;2.92;2.70;;;;;;;;;;5081692;28;20016;-53
2021/07/05 03:44:01;;;;;;;3.30;2.75;;;;;;;;;;5076213;28;20024;-55
2021/07/05 03:46:26;;;;;;;2.60;2.40;;;;;;;;;;5076129;28;20085;-55
2021/07/05 03:48:51;;;;;;;2.65;2.45;;;;;;;;;;5094755;28;20030;-55
2021/07/05 03:51:17;;;;;;;2.70;2.50;;;;;;;;;;5091265;28;20027;-55
2021/07/05 03:53:42;;;;;;;2.70;2.50;;;;;;;;;;5095039;28;20031;-54
2021/07/05 03:56:07;;;;;;;2.65;2.45;;;;;;;;;;5080566;28;20069;-53
2021/07/05 03:58:32;;;;;;;2.63;2.42;;;;;;;;;;5075637;28;20103;-53
2021/07/05 04:01:00;;;;;;;2.97;2.13;;;;;;;;;;5089737;28;20035;-53
2021/07/05 04:03:25;;;;;;;4.47;3.22;;;;;;;;;;5078256;28;20060;-54
2021/07/05 04:05:52;;;;;;;2.63;2.30;;;;;;;;;;5091609;28;20077;-53
2021/07/05 04:08:17;;;;;;;4.05;2.85;;;;;;;;;;5075331;28;20541;-52
2021/07/05 04:10:42;;;;;;;3.25;2.58;;;;;;;;;;5078887;28;20084;-55
2021/07/05 04:13:10;;;;;;;2.85;2.60;;;;;;;;;;5091997;28;20432;-55
2021/07/05 04:15:35;;;;;;;4.60;2.75;;;;;;;;;;5091223;28;20020;-56
2021/07/05 04:18:01;;;;;;;2.45;2.15;;;;;;;;;;5095317;28;20031;-56
2021/07/05 04:20:26;;;;;;;2.85;2.53;;;;;;;;;;5091963;28;20051;-55
2021/07/05 04:22:52;;;;;;;2.72;2.47;;;;;;;;;;5088925;28;20020;-55
2021/07/05 04:25:18;;;;;;;3.30;2.60;;;;;;;;;;5074846;28;20537;-55
2021/07/05 04:27:44;;;;;;;4.43;2.67;;;;;;;;;;5090649;28;20028;-54
2021/07/05 04:30:10;;;;;;;2.53;2.17;;;;;;;;;;5093867;28;20013;-56
2021/07/05 04:32:37;;;;;;;3.25;2.42;;;;;;;;;;5080588;28;20047;-55
2021/07/05 04:35:04;;;;;;;5.13;3.25;;;;;;;;;;5093710;28;20047;-56
2021/07/05 04:37:29;;;;;;;3.20;2.83;;;;;;;;;;5078352;28;20012;-55
2021/07/05 04:39:55;;;;;;;3.03;2.72;;;;;;;;;;5091597;28;20035;-54
2021/07/05 04:42:20;;;;;;;3.03;2.75;;;;;;;;;;5081519;28;20021;-56
2021/07/05 04:44:46;;;;;;;4.75;2.45;;;;;;;;;;5088188;28;20031;-53
2021/07/05 04:47:12;;;;;;;2.70;2.50;;;;;;;;;;5092978;28;20028;-56
2021/07/05 04:49:37;;;;;;;4.13;2.60;;;;;;;;;;5094506;28;20020;-54
2021/07/05 04:52:03;;;;;;;3.10;2.80;;;;;;;;;;5077551;28;20012;-55
2021/07/05 04:54:28;;;;;;;4.85;2.83;;;;;;;;;;5082872;28;20047;-56
2021/07/05 04:56:53;;;;;;;3.17;2.15;;;;;;;;;;5075466;28;20053;-56
2021/07/05 04:59:19;;;;;;;3.85;2.53;;;;;;;;;;5078424;28;20375;-56
2021/07/05 05:01:45;;;;;;;3.13;2.63;;;;;;;;;;5089613;28;20024;-52
2021/07/05 05:04:11;;;;;;;3.40;2.90;;;;;;;;;;5074412;28;20556;-57
2021/07/05 05:06:36;;;;;;;3.17;2.83;;;;;;;;;;5075007;28;20123;-55
2021/07/05 05:09:01;;;;;;;2.75;2.55;;;;;;;;;;5092054;28;20397;-55
2021/07/05 05:11:26;;;;;;;3.97;3.00;;;;;;;;;;5084826;28;20017;-55
2021/07/05 05:13:51;;;;;;;3.25;2.95;;;;;;;;;;5090078;28;20020;-50
2021/07/05 05:16:17;;;;;;;3.58;3.10;;;;;;;;;;5080952;28;20021;-53
2021/07/05 05:18:42;;;;;;;3.63;3.33;;;;;;;;;;5074175;28;20391;-54
2021/07/05 05:21:08;;;;;;;5.88;3.38;;;;;;;;;;5087777;28;20020;-55
2021/07/05 05:23:33;;;;;;;3.88;3.47;;;;;;;;;;5080969;28;20486;-54
2021/07/05 05:25:59;;;;;;;4.05;3.30;;;;;;;;;;5082178;28;20107;-56
2021/07/05 05:28:24;;;;;;;3.33;3.03;;;;;;;;;;5084255;28;20020;-55
2021/07/05 05:30:49;;;;;;;4.72;2.90;;;;;;;;;;5089791;28;20031;-55
2021/07/05 05:33:15;;;;;;;3.33;3.00;;;;;;;;;;5091859;28;20028;-54
2021/07/05 05:35:40;;;;;;;3.33;2.90;;;;;;;;;;5093152;28;20020;-56
2021/07/05 05:38:05;;;;;;;2.55;2.35;;;;;;;;;;5083458;28;20063;-54
2021/07/05 05:40:31;;;;;;;3.33;3.03;;;;;;;;;;5075233;28;20067;-56
2021/07/05 05:42:56;;;;;;;3.20;2.90;;;;;;;;;;5083164;28;20024;-52
2021/07/05 05:45:21;;;;;;;2.28;2.08;;;;;;;;;;5073237;28;20029;-54
2021/07/05 05:47:47;;;;;;;2.95;2.75;;;;;;;;;;5074769;28;20016;-54
2021/07/05 05:50:13;;;;;;;3.25;2.28;;;;;;;;;;5086926;28;20024;-53
2021/07/05 05:52:38;;;;;;;2.38;2.22;;;;;;;;;;5085416;28;20472;-55
2021/07/05 05:55:05;;;;;;;3.15;2.83;;;;;;;;;;5091663;28;20049;-56
2021/07/05 05:57:31;;;;;;;2.65;2.45;;;;;;;;;;5086279;28;20081;-53
2021/07/05 05:59:57;;;;;;;2.53;2.22;;;;;;;;;;5083519;28;20016;-54
2021/07/05 06:02:23;;;;;;;2.80;2.60;;;;;;;;;;5090061;28;20047;-52
2021/07/05 06:04:48;;;;;;;4.63;2.83;;;;;;;;;;5091847;28;20036;-56
2021/07/05 06:07:14;;;;;;;2.75;2.40;;;;;;;;;;5088569;28;20126;-55
2021/07/05 06:09:39;;;;;;;2.70;2.50;;;;;;;;;;5082921;28;20012;-55
2021/07/05 06:12:04;;;;;;;2.30;2.10;;;;;;;;;;5081923;28;20387;-56
2021/07/05 06:14:29;;;;;;;2.25;2.08;;;;;;;;;;5084042;28;20137;-55
2021/07/05 06:16:55;;;;;;;2.55;2.35;;;;;;;;;;5090357;28;20324;-53
2021/07/05 06:19:20;;;;;;;3.38;2.58;;;;;;;;;;5087399;28;20020;-52
2021/07/05 06:21:45;;;;;;;3.00;2.80;;;;;;;;;;5078744;28;20023;-54
2021/07/05 06:24:10;;;;;;;3.97;2.47;;;;;;;;;;5088544;28;20403;-54
2021/07/05 06:26:36;;;;;;;3.10;2.90;;;;;;;;;;5086222;28;20103;-55
2021/07/05 06:29:01;;;;;;;3.25;2.95;;;;;;;;;;5072620;28;20050;-52
2021/07/05 06:31:26;;;;;;;3.15;2.95;;;;;;;;;;5069787;28;20032;-52
2021/07/05 06:33:51;;;;;;;5.57;3.95;;;;;;;;;;5078960;28;20024;-50
2021/07/05 06:36:17;;;;;;;3.53;3.17;;;;;;;;;;5091549;28;20012;-52
2021/07/05 06:38:43;;;;;;;3.55;3.13;;;;;;;;;;5092559;28;20079;-55
2021/07/05 06:41:08;;;;;;;3.92;3.58;;;;;;;;;;5088974;28;20028;-58
2021/07/05 06:43:33;;;;;;;3.70;3.22;;;;;;;;;;5088584;28;20030;-52
2021/07/05 06:45:58;;;;;;;3.30;2.97;;;;;;;;;;5085400;28;20095;-55
2021/07/05 06:48:24;;;;;;;4.53;3.35;;;;;;;;;;5078721;28;20024;-57
2021/07/05 06:50:49;;;;;;;4.13;3.63;;;;;;;;;;5082394;28;20023;-54
2021/07/05 06:53:14;;;;;;;3.92;3.63;;;;;;;;;;5091859;28;20051;-55
2021/07/05 06:55:39;;;;;;;4.07;3.67;;;;;;;;;;5092453;28;20074;-56
2021/07/05 06:58:05;;;;;;;4.18;3.78;;;;;;;;;;5086158;28;20059;-54
2021/07/05 07:00:31;;;;;;;4.38;3.65;;;;;;;;;;5087951;28;20024;-55
2021/07/05 07:02:57;;;;;;;3.75;3.45;;;;;;;;;;5079580;28;20101;-52
2021/07/05 07:05:23;;;;;;;3.97;3.67;;;;;;;;;;5089524;28;20020;-52
2021/07/05 07:07:50;;;;;;;3.35;3.05;;;;;;;;;;5088101;28;20055;-55
2021/07/05 07:10:16;;;;;;;4.22;3.83;;;;;;;;;;5087127;28;20412;-53
2021/07/05 07:12:45;;;;;;;5.32;3.92;;;;;;;;;;5087931;28;20018;-56
2021/07/05 07:15:11;;;;;;;3.60;3.10;;;;;;;;;;5076729;28;20099;-52
2021/07/05 07:17:39;;;;;;;4.88;3.53;;;;;;;;;;5072255;28;20112;-56
2021/07/05 07:20:08;;;;;;;2.95;2.42;;;;;;;;;;5075884;28;20460;-53
2021/07/05 07:22:34;;;;;;;2.38;2.10;;;;;;;;;;5081730;28;20116;-54
2021/07/05 07:24:59;;;;;;;2.60;2.40;;;;;;;;;;5078361;28;20108;-55
2021/07/05 07:27:25;;;;;;;2.08;1.98;;;;;;;;;;5071812;28;20052;-55
2021/07/05 07:29:50;;;;;;;3.03;1.90;;;;;;;;;;5087193;28;20372;-54
2021/07/05 07:32:15;;;;;;;3.05;1.83;;;;;;;;;;5080227;28;20464;-55
2021/07/05 07:34:40;;;;;;;2.22;1.80;;;;;;;;;;5081228;28;20495;-53
2021/07/05 07:37:07;;;;;;;2.42;1.83;;;;;;;;;;5090441;28;20020;-56
2021/07/05 07:39:38;;;;;;;2.78;0.85;;;;;;;;;;5087655;28;20019;-57
2021/07/05 07:42:04;;;;;;;1.60;1.50;;;;;;;;;;5080673;28;20039;-55
2021/07/05 07:44:29;;;;;;;2.00;1.90;;;;;;;;;;5082857;28;20374;-56
2021/07/05 07:46:55;;;;;;;1.73;1.60;;;;;;;;;;5085935;28;20016;-54
2021/07/05 07:49:20;;;;;;;2.03;1.58;;;;;;;;;;5071936;28;20025;-55
2021/07/05 07:51:45;;;;;;;1.58;1.48;;;;;;;;;;5078443;28;20469;-55
2021/07/05 07:54:11;;;;;;;2.38;1.40;;;;;;;;;;5092016;28;20098;-56
2021/07/05 07:56:36;;;;;;;2.10;1.30;;;;;;;;;;5083361;28;20078;-52
2021/07/05 07:59:02;;;;;;;2.17;1.38;;;;;;;;;;5084137;28;20491;-54
2021/07/05 08:01:28;;;;;;;1.88;1.02;;;;;;;;;;5068538;28;20031;-54
2021/07/05 08:03:53;;;;;;;1.92;1.40;;;;;;;;;;5071478;28;20056;-55
2021/07/05 08:06:18;;;;;;;2.00;0.95;;;;;;;;;;5085358;28;20024;-55
2021/07/05 08:08:47;;;;;;;1.30;1.20;;;;;;;;;;5090057;28;20467;-55
2021/07/05 08:11:14;;;;;;;1.23;0.93;;;;;;;;;;5081754;28;20048;-55
2021/07/05 08:13:39;;;;;;;2.42;1.20;;;;;;;;;;5077506;28;20070;-55
2021/07/05 08:16:04;;;;;;;1.17;1.00;;;;;;;;;;5087698;28;20021;-56
2021/07/05 08:18:29;;;;;;;1.17;1.08;;;;;;;;;;5075178;28;20056;-53
2021/07/05 08:20:55;;;;;;;2.42;1.17;;;;;;;;;;5071678;28;20055;-52
2021/07/05 08:23:20;;;;;;;0.80;0.55;;;;;;;;;;5084373;28;20035;-57
2021/07/05 08:25:45;;;;;;;2.22;1.15;;;;;;;;;;5094116;28;20024;-53
2021/07/05 08:28:11;;;;;;;0.60;0.60;;;;;;;;;;5081195;28;20032;-55
2021/07/05 08:30:36;;;;;;;1.08;0.40;;;;;;;;;;5071978;28;20020;-55
2021/07/05 08:33:01;;;;;;;0.68;0.68;;;;;;;;;;5075278;28;20017;-56
2021/07/05 08:35:26;;;;;;;0.60;0.60;;;;;;;;;;5083944;28;20094;-56
2021/07/05 08:37:53;;;;;;;0.82;0.70;;;;;;;;;;5086415;28;20745;-57
2021/07/05 08:40:19;;;;;;;1.27;0.80;;;;;;;;;;5089426;28;20428;-55
2021/07/05 08:42:44;;;;;;;1.20;0.60;;;;;;;;;;5080821;28;20026;-56
2021/07/05 08:45:10;;;;;;;0.60;0.60;;;;;;;;;;5094909;28;20468;-55
2021/07/05 08:47:37;;;;;;;0.75;0.70;;;;;;;;;;5079511;28;20017;-57
2021/07/05 08:50:04;;;;;;;1.52;0.60;;;;;;;;;;5078985;28;20028;-55
2021/07/05 08:52:32;;;;;;;1.13;0.88;;;;;;;;;;5088567;28;20043;-56
2021/07/05 08:54:57;;;;;;;0.98;0.70;;;;;;;;;;5093780;28;20020;-56
2021/07/05 08:57:41;;;;;;;0.80;0.60;;;;;;;;;;5093604;28;20409;-57
2021/07/05 09:00:08;;;;;;;4.13;0.52;;;;;;;;;;5084528;28;20259;-56
2021/07/05 09:02:33;;;;;;;0.50;0.50;;;;;;;;;;5091266;28;20127;-54
2021/07/05 09:04:59;;;;;;;0.63;0.35;;;;;;;;;;5094054;28;20115;-54
2021/07/05 09:07:24;;;;;;;1.35;0.50;;;;;;;;;;5093827;28;20089;-58
2021/07/05 09:09:57;;;;;;;0.80;0.52;;;;;;;;;;5094425;28;20052;-56
2021/07/05 09:12:23;;;;;;;0.82;0.40;;;;;;;;;;5090385;28;20103;-56
2021/07/05 09:15:01;;;;;;;1.13;0.43;;;;;;;;;;5094575;28;20103;-56
2021/07/05 09:17:31;;;;;;;0.40;0.40;;;;;;;;;;5093559;28;20463;-56
2021/07/05 09:19:56;;;;;;;1.70;0.40;;;;;;;;;;5093600;28;20024;-54
2021/07/05 09:22:22;;;;;;;0.50;0.40;;;;;;;;;;5079315;28;20508;-56
2021/07/05 09:24:47;;;;;;;2.83;0.50;;;;;;;;;;5075360;28;20274;-52
2021/07/05 09:27:20;;;;;;;0.60;0.40;;;;;;;;;;5082035;28;20262;-52
2021/07/05 09:29:45;;;;;;;1.65;0.40;;;;;;;;;;5081620;28;20664;-52
2021/07/05 09:32:12;;;;;;;1.70;0.40;;;;;;;;;;5072662;28;20016;-55
2021/07/05 09:34:42;;;;;;;0.73;0.20;;;;;;;;;;5086402;28;20016;-56
2021/07/05 09:37:39;;;;;;;0.40;0.30;;;;;;;;;;5083051;28;20103;-55
2021/07/05 09:40:05;;;;;;;1.13;0.40;;;;;;;;;;5028828;28;20033;-55
2021/07/05 09:42:34;;;;;;;0.63;0.30;;;;;;;;;;5076232;28;20023;-54
2021/07/05 09:45:03;;;;;;;1.02;0.30;;;;;;;;;;5093359;28;20027;-54
2021/07/05 09:47:28;;;;;;;1.20;0.38;;;;;;;;;;5081150;28;20012;-54
2021/07/05 09:49:56;;;;;;;2.03;0.47;;;;;;;;;;5082574;28;20051;-55
2021/07/05 09:52:26;;;;;;;1.63;0.20;;;;;;;;;;5070935;28;20150;-55
2021/07/05 09:54:55;;;;;;;1.48;0.30;;;;;;;;;;5081538;28;20028;-55
2021/07/05 09:57:31;;;;;;;0.28;0.22;;;;;;;;;;5091810;28;20028;-55
2021/07/05 10:00:08;;;;;;;0.75;0.30;;;;;;;;;;5082364;28;20162;-56
2021/07/05 10:02:34;;;;;;;3.60;0.45;;;;;;;;;;5083692;28;20040;-55
2021/07/05 10:05:12;;;;;;;0.47;0.30;;;;;;;;;;5082373;28;20028;-53
2021/07/05 10:07:37;;;;;;;1.15;0.40;;;;;;;;;;5089981;28;20366;-54
2021/07/05 10:10:09;;;;;;;1.63;0.28;;;;;;;;;;5092925;28;20027;-55
2021/07/05 10:12:34;;;;;;;0.52;0.45;;;;;;;;;;5088775;28;20467;-53
2021/07/05 10:15:02;;;;;;;1.10;0.30;;;;;;;;;;5075259;28;20070;-54
2021/07/05 10:17:28;;;;;;;0.43;0.40;;;;;;;;;;5092291;28;20027;-55
2021/07/05 10:19:54;;;;;;;0.77;0.40;;;;;;;;;;5078189;28;20013;-54
2021/07/05 10:22:20;;;;;;;1.15;0.20;;;;;;;;;;5090095;28;20030;-57
2021/07/05 10:24:46;;;;;;;0.20;0.20;;;;;;;;;;5093135;28;20012;-53
2021/07/05 10:27:11;;;;;;;0.30;0.20;;;;;;;;;;5077846;28;20063;-52
2021/07/05 10:29:38;;;;;;;0.77;0.20;;;;;;;;;;5075165;28;20020;-56
2021/07/05 10:32:04;;;;;;;1.58;0.30;;;;;;;;;;5083629;28;20023;-54
2021/07/05 10:34:29;;;;;;;0.75;0.20;;;;;;;;;;5081642;28;20040;-55
2021/07/05 10:36:56;;;;;;;0.38;0.20;;;;;;;;;;5080491;28;20050;-57
2021/07/05 10:39:22;;;;;;;0.80;0.20;;;;;;;;;;5089244;28;20016;-56
2021/07/05 10:41:47;;;;;;;1.85;0.40;;;;;;;;;;5089971;28;20024;-55
2021/07/05 10:44:15;;;;;;;1.38;0.20;;;;;;;;;;5091624;28;20043;-55
2021/07/05 10:46:40;;;;;;;3.00;0.30;;;;;;;;;;5091292;28;20028;-54
2021/07/05 10:49:06;;;;;;;0.55;0.28;;;;;;;;;;5091574;28;20028;-56
2021/07/05 10:51:42;;;;;;;0.88;0.20;;;;;;;;;;5079459;28;20530;-53
2021/07/05 10:54:07;;;;;;;0.50;0.20;;;;;;;;;;5088468;28;20008;-57
2021/07/05 10:56:36;;;;;;;1.05;0.20;;;;;;;;;;5076473;28;20078;-56
2021/07/05 10:59:10;;;;;;;0.93;0.20;;;;;;;;;;5075154;28;20035;-55
2021/07/05 11:01:37;;;;;;;1.95;0.30;;;;;;;;;;5076523;28;20024;-55
2021/07/05 11:04:19;;;;;;;0.65;0.20;;;;;;;;;;5087747;28;20059;-56
2021/07/05 11:06:44;;;;;;;0.40;0.20;;;;;;;;;;5090934;28;20031;-56
2021/07/05 11:09:10;;;;;;;0.75;0.30;;;;;;;;;;5090625;28;20024;-54
2021/07/05 11:11:35;;;;;;;0.95;0.30;;;;;;;;;;5071018;28;20283;-56
2021/07/05 11:14:09;;;;;;;0.22;0.20;;;;;;;;;;5085303;28;20464;-55
2021/07/05 11:16:50;;;;;;;0.55;0.30;;;;;;;;;;5087417;28;20016;-55
2021/07/05 11:19:29;;;;;;;1.02;0.20;;;;;;;;;;5088525;28;20020;-56
2021/07/05 11:21:56;;;;;;;1.35;0.40;;;;;;;;;;5071702;28;20098;-54
2021/07/05 11:24:29;;;;;;;1.50;0.20;;;;;;;;;;5072128;28;20086;-55
2021/07/05 11:26:55;;;;;;;1.02;0.22;;;;;;;;;;5079521;28;20108;-55
2021/07/05 11:29:22;;;;;;;0.40;0.28;;;;;;;;;;5088748;28;20115;-53
2021/07/05 11:31:52;;;;;;;0.90;0.25;;;;;;;;;;5081262;28;20016;-53
2021/07/05 11:34:31;;;;;;;0.50;0.40;;;;;;;;;;5075464;28;20016;-54
2021/07/05 11:37:12;;;;;;;0.95;0.28;;;;;;;;;;5088011;28;20025;-56
2021/07/05 11:39:42;;;;;;;0.50;0.20;;;;;;;;;;5089484;28;20486;-56
2021/07/05 11:42:07;;;;;;;0.20;0.20;;;;;;;;;;5087365;28;20175;-55
2021/07/05 11:44:50;;;;;;;1.63;0.50;;;;;;;;;;5086975;28;20454;-56
2021/07/05 11:47:33;;;;;;;0.68;0.20;;;;;;;;;;5081649;28;20028;-55
2021/07/05 11:50:14;;;;;;;2.05;0.20;;;;;;;;;;5084107;28;20067;-55
2021/07/05 11:52:59;;;;;;;2.35;0.35;;;;;;;;;;5080792;28;20016;-55
2021/07/05 11:55:29;;;;;;;0.52;0.30;;;;;;;;;;5083250;28;20036;-55
2021/07/05 11:57:58;;;;;;;0.75;0.30;;;;;;;;;;5088159;28;20081;-56
2021/07/05 12:00:26;;;;;;;3.25;0.40;;;;;;;;;;5077426;28;20029;-54
2021/07/05 12:03:02;;;;;;;1.05;0.22;;;;;;;;;;5090478;28;20076;-55
2021/07/05 12:05:27;;;;;;;1.77;0.30;;;;;;;;;;5090836;28;20071;-55
2021/07/05 12:08:04;;;;;;;0.30;0.30;;;;;;;;;;5090036;28;20052;-56
2021/07/05 12:10:30;;;;;;;1.52;0.20;;;;;;;;;;5091378;28;20020;-55
2021/07/05 12:13:14;;;;;;;0.20;0.20;;;;;;;;;;5083619;28;20020;-57
2021/07/05 12:15:40;;;;;;;0.60;0.20;;;;;;;;;;5087457;28;20459;-55
2021/07/05 12:18:05;;;;;;;1.08;0.30;;;;;;;;;;5090173;28;20024;-55
2021/07/05 12:20:30;;;;;;;0.45;0.20;;;;;;;;;;5091653;28;20546;-52
2021/07/05 12:22:56;;;;;;;0.45;0.20;;;;;;;;;;5086523;28;20012;-56
2021/07/05 12:25:21;;;;;;;1.40;0.30;;;;;;;;;;5083206;28;20028;-55
2021/07/05 12:27:46;;;;;;;0.35;0.20;;;;;;;;;;5087498;28;20279;-55
2021/07/05 12:30:13;;;;;;;0.40;0.30;;;;;;;;;;5089332;28;20460;-56
2021/07/05 12:32:39;;;;;;;1.42;0.40;;;;;;;;;;5075183;28;20020;-53
2021/07/05 12:35:07;;;;;;;1.17;0.30;;;;;;;;;;5082647;28;20024;-57
2021/07/05 12:37:44;;;;;;;0.30;0.30;;;;;;;;;;5083113;28;20051;-56
2021/07/05 12:40:23;;;;;;;0.30;0.28;;;;;;;;;;5079955;28;20025;-56
2021/07/05 12:42:49;;;;;;;0.95;0.30;;;;;;;;;;5074269;28;20017;-54
2021/07/05 12:45:18;;;;;;;0.83;0.20;;;;;;;;;;5084899;28;20031;-54
2021/07/05 12:47:46;;;;;;;0.43;0.17;;;;;;;;;;5087897;28;20282;-54
2021/07/05 12:50:13;;;;;;;0.20;0.10;;;;;;;;;;5092830;28;20020;-53
2021/07/05 12:52:39;;;;;;;0.38;0.13;;;;;;;;;;5080003;28;20104;-55
2021/07/05 12:55:10;;;;;;;1.03;0.10;;;;;;;;;;5083604;28;20063;-54
2021/07/05 12:57:46;;;;;;;1.48;0.20;;;;;;;;;;5091613;28;20270;-53
2021/07/05 13:00:12;;;;;;;1.25;0.10;;;;;;;;;;5086455;28;20023;-54
2021/07/05 13:02:37;;;;;;;0.75;0.20;;;;;;;;;;5087609;28;20123;-55
2021/07/05 13:05:13;;;;;;;1.20;0.20;;;;;;;;;;5088250;28;20021;-56
2021/07/05 13:07:39;;;;;;;0.85;0.10;;;;;;;;;;5081141;28;20831;-55
2021/07/05 13:10:06;;;;;;;0.52;0.20;;;;;;;;;;5079273;28;20051;-57
2021/07/05 13:12:31;;;;;;;0.50;0.13;;;;;;;;;;5081601;28;20077;-55
2021/07/05 13:15:13;;;;;;;2.30;0.20;;;;;;;;;;5093982;28;20547;-54
2021/07/05 13:17:38;;;;;;;1.00;0.15;;;;;;;;;;5089024;28;20012;-53
2021/07/05 13:20:10;;;;;;;2.28;0.20;;;;;;;;;;5086287;28;20020;-55
2021/07/05 13:22:36;;;;;;;0.65;0.30;;;;;;;;;;5086463;28;20113;-54
2021/07/05 13:25:03;;;;;;;0.30;0.20;;;;;;;;;;5090148;28;20387;-55
2021/07/05 13:27:30;;;;;;;0.63;0.10;;;;;;;;;;5083776;28;20021;-55
2021/07/05 13:29:58;;;;;;;0.63;0.20;;;;;;;;;;5083613;28;20098;-55
2021/07/05 13:32:24;;;;;;;1.55;0.20;;;;;;;;;;5071546;28;20017;-56
2021/07/05 13:35:09;;;;;;;1.55;0.20;;;;;;;;;;5090360;28;20012;-56
2021/07/05 13:37:40;;;;;;;1.95;0.20;;;;;;;;;;5086998;28;20450;-56
2021/07/05 13:40:06;;;;;;;0.52;0.20;;;;;;;;;;5077549;28;20580;-56
2021/07/05 13:42:45;;;;;;;1.25;0.22;;;;;;;;;;5077807;28;20031;-55
2021/07/05 13:45:12;;;;;;;1.15;0.20;;;;;;;;;;5088194;28;20319;-56
2021/07/05 13:47:46;;;;;;;0.30;0.20;;;;;;;;;;5083726;28;20040;-56
2021/07/05 13:50:18;;;;;;;0.30;0.20;;;;;;;;;;5090949;28;20064;-55
2021/07/05 13:52:49;;;;;;;2.35;0.30;;;;;;;;;;5082987;28;20009;-56
2021/07/05 13:55:29;;;;;;;0.60;0.40;;;;;;;;;;5081168;28;20016;-56
2021/07/05 13:57:59;;;;;;;0.20;0.20;;;;;;;;;;5078078;28;20029;-57
2021/07/05 14:00:25;;;;;;;1.55;0.30;;;;;;;;;;5078922;28;20013;-56
2021/07/05 14:02:50;;;;;;;0.60;0.38;;;;;;;;;;5075563;28;20040;-56
2021/07/05 14:05:20;;;;;;;1.75;0.32;;;;;;;;;;5082214;28;20091;-51
2021/07/05 14:07:45;;;;;;;1.13;0.30;;;;;;;;;;5083652;28;20611;-54
2021/07/05 14:10:11;;;;;;;0.70;0.40;;;;;;;;;;5085565;28;20016;-56
2021/07/05 14:12:37;;;;;;;2.17;0.52;;;;;;;;;;5070899;28;20105;-56
2021/07/05 14:15:02;;;;;;;0.98;0.30;;;;;;;;;;5073082;28;20025;-55
2021/07/05 14:17:28;;;;;;;1.40;0.20;;;;;;;;;;5077454;28;20039;-55
2021/07/05 14:19:53;;;;;;;0.20;0.20;;;;;;;;;;5080759;28;20055;-53
2021/07/05 14:22:19;;;;;;;1.55;0.40;;;;;;;;;;5082372;28;20066;-54
2021/07/05 14:24:45;;;;;;;0.55;0.20;;;;;;;;;;5080077;28;20502;-55
2021/07/05 14:27:10;;;;;;;1.02;0.25;;;;;;;;;;5082100;28;20023;-56
2021/07/05 14:29:35;;;;;;;0.20;0.20;;;;;;;;;;5083216;28;20047;-54
2021/07/05 14:32:00;;;;;;;0.93;0.20;;;;;;;;;;5079546;28;20104;-55
2021/07/05 14:34:26;;;;;;;0.60;0.30;;;;;;;;;;5073863;28;20021;-55
2021/07/05 14:36:51;;;;;;;0.77;0.20;;;;;;;;;;5081967;28;20267;-55
2021/07/05 14:39:16;;;;;;;0.63;0.10;;;;;;;;;;5078574;28;20093;-55
2021/07/05 14:41:41;;;;;;;0.28;0.10;;;;;;;;;;5078311;28;20020;-54